Nova Odessa, Brazil
Current Conditions -  °F | °C
As of 5:00 PM on Thursday 30 Oct 2014 (Local Time) from SBKP Reporting Station
Few Clouds Few Clouds  
Wind Chill: 95°   Ceiling: Unl
Heat Index: 95°   Visibility: 6mi
Dew Point: 46°   Wind: 9mph
Humidity: 19%   Direction: 290°WNW
Pressure: 29.8"   Gusts: NA
Location:  22.78°S, 47.3°W
Report Text: SBKP 301900Z 29008KT 9999 FEW048 35/08 Q1009
Loading
Personal Weather Stations






























Interactive Weather Map
Tropical Storm Tracking
New forecast layout! Learn more

10-Day Weather Forecast

Advertisements
Track Severe Weather on mobile